Time;durP1;ratioP1;P1;durP2;ratioP2;P2;SDS_P1;SDS_P2;PMS_P1;PMS_P2;Temp;Humidity;BMP_temperature;BMP_pressure;BME280_temperature;BME280_humidity;BME280_pressure;Samples;Min_cycle;Max_cycle;Signal;HPM_P1;HPM_P2
2022/01/10 00:00:20;;;;;;;14.68;7.68;;;1.40;99.90;;;;;;5100876;28;20035;-69
2022/01/10 00:02:51;;;;;;;11.73;6.03;;;1.50;99.90;;;;;;5097894;28;20035;-70
2022/01/10 00:05:17;;;;;;;15.20;8.50;;;1.40;99.90;;;;;;5100220;28;20099;-70
2022/01/10 00:07:42;;;;;;;13.60;6.03;;;1.40;99.90;;;;;;5097851;28;20602;-69
2022/01/10 00:10:09;;;;;;;8.68;5.70;;;1.40;99.90;;;;;;5098678;28;20035;-70
2022/01/10 00:12:35;;;;;;;9.38;5.57;;;1.50;99.90;;;;;;5067803;28;20119;-68
2022/01/10 00:15:00;;;;;;;12.10;7.03;;;1.50;99.90;;;;;;5090174;28;20108;-71
2022/01/10 00:17:26;;;;;;;16.95;7.78;;;1.40;99.90;;;;;;5089286;28;20024;-68
2022/01/10 00:19:52;;;;;;;10.73;6.88;;;1.40;99.90;;;;;;5089392;28;20040;-68
2022/01/10 00:22:18;;;;;;;13.48;7.80;;;1.40;99.90;;;;;;5086893;28;20099;-68
2022/01/10 00:24:44;;;;;;;16.02;7.10;;;1.40;99.90;;;;;;5089664;28;20027;-69
2022/01/10 00:27:10;;;;;;;9.75;6.53;;;1.40;99.90;;;;;;5090226;28;20377;-68
2022/01/10 00:29:35;;;;;;;12.48;7.25;;;1.40;99.90;;;;;;5088580;28;20059;-68
2022/01/10 00:32:01;;;;;;;11.73;6.80;;;1.40;99.90;;;;;;5090232;28;20077;-69
2022/01/10 00:34:27;;;;;;;13.90;6.78;;;1.40;99.90;;;;;;5088771;28;20046;-68
2022/01/10 00:36:53;;;;;;;12.43;7.43;;;1.40;99.90;;;;;;5089002;28;20095;-69
2022/01/10 00:39:19;;;;;;;18.33;7.30;;;1.40;99.90;;;;;;5088804;28;20066;-68
2022/01/10 00:41:46;;;;;;;17.40;7.32;;;1.40;99.90;;;;;;5088254;28;20027;-68
2022/01/10 00:44:13;;;;;;;15.48;7.78;;;1.40;99.90;;;;;;5089587;28;20028;-68
2022/01/10 00:46:39;;;;;;;15.52;7.07;;;1.40;99.90;;;;;;5088127;28;20635;-69
2022/01/10 00:49:05;;;;;;;12.25;6.60;;;1.40;99.90;;;;;;5089467;28;20127;-68
2022/01/10 00:51:30;;;;;;;15.20;7.10;;;1.40;99.90;;;;;;5087975;28;20465;-68
2022/01/10 00:53:57;;;;;;;12.85;6.25;;;1.40;99.90;;;;;;5087617;28;20043;-68
2022/01/10 00:56:24;;;;;;;9.65;5.88;;;1.40;99.90;;;;;;5088731;28;20024;-68
2022/01/10 00:58:50;;;;;;;9.77;6.22;;;1.30;99.90;;;;;;5089630;28;20031;-68
2022/01/10 01:01:16;;;;;;;10.90;5.88;;;1.30;99.90;;;;;;5089709;28;20024;-68
2022/01/10 01:03:42;;;;;;;11.68;5.30;;;1.30;99.90;;;;;;5088218;28;20016;-68
2022/01/10 01:06:10;;;;;;;13.52;5.82;;;1.30;99.90;;;;;;5089448;28;20480;-68
2022/01/10 01:08:36;;;;;;;15.07;6.30;;;1.30;99.90;;;;;;5086316;28;20774;-68
2022/01/10 01:13:37;;;;;;;9.43;5.05;;;1.30;99.90;;;;;;5088844;28;20025;-69
2022/01/10 01:26:26;;;;;;;9.77;5.35;;;1.40;99.90;;;;;;5069664;28;20032;-68
2022/01/10 01:28:52;;;;;;;12.13;4.82;;;1.30;99.90;;;;;;5070539;28;20044;-69
2022/01/10 01:31:18;;;;;;;11.02;5.10;;;1.40;99.90;;;;;;5070014;28;20032;-68
2022/01/10 01:33:44;;;;;;;11.55;4.95;;;1.40;99.90;;;;;;5089833;28;20434;-68
2022/01/10 01:36:10;;;;;;;12.32;4.60;;;1.40;99.90;;;;;;5073133;28;20025;-69
2022/01/10 01:38:37;;;;;;;16.58;4.97;;;1.40;99.90;;;;;;5073576;28;20040;-68
2022/01/10 01:43:48;;;;;;;15.48;5.28;;;1.40;99.90;;;;;;5075834;28;20585;-68
2022/01/10 01:46:15;;;;;;;9.40;5.13;;;1.30;99.90;;;;;;5093395;28;20106;-68
2022/01/10 01:48:41;;;;;;;9.07;4.57;;;1.30;99.90;;;;;;5093272;28;20100;-68
2022/01/10 01:51:07;;;;;;;10.38;4.90;;;1.30;99.90;;;;;;5094135;28;20032;-68
2022/01/10 01:53:33;;;;;;;12.80;5.03;;;1.30;99.90;;;;;;5075843;28;20033;-68
2022/01/10 01:55:59;;;;;;;10.10;5.38;;;1.30;99.90;;;;;;5075297;28;20033;-68
2022/01/10 01:58:26;;;;;;;8.82;4.85;;;1.30;99.90;;;;;;5092440;28;20035;-68
2022/01/10 02:00:52;;;;;;;8.35;5.20;;;1.30;99.90;;;;;;5094221;28;20039;-68
2022/01/10 02:03:18;;;;;;;11.70;6.15;;;1.30;99.90;;;;;;5093914;28;20380;-68
2022/01/10 02:05:44;;;;;;;13.65;6.03;;;1.30;99.90;;;;;;5093742;28;20461;-68
2022/01/10 02:08:10;;;;;;;11.77;5.93;;;1.40;99.90;;;;;;5073866;28;20036;-68
2022/01/10 02:10:37;;;;;;;9.70;5.32;;;1.40;99.90;;;;;;5072930;28;20033;-68
2022/01/10 02:13:03;;;;;;;8.13;5.22;;;1.40;99.90;;;;;;5075018;28;20414;-68
2022/01/10 02:15:35;;;;;;;12.95;5.75;;;1.40;99.90;;;;;;5088314;28;20031;-68
2022/01/10 02:18:01;;;;;;;10.70;5.55;;;1.40;99.90;;;;;;5093609;28;20040;-68
2022/01/10 02:20:32;;;;;;;14.85;6.05;;;1.50;99.90;;;;;;5091949;28;20047;-68
2022/01/10 02:22:58;;;;;;;9.88;5.28;;;1.50;99.90;;;;;;5080174;28;20039;-68
2022/01/10 02:25:24;;;;;;;12.35;5.65;;;1.50;99.90;;;;;;5073890;28;20029;-68
2022/01/10 02:27:50;;;;;;;15.75;6.40;;;1.50;99.90;;;;;;5086483;28;20377;-68
2022/01/10 02:30:15;;;;;;;16.05;5.82;;;1.50;99.90;;;;;;5092212;28;20056;-69
2022/01/10 02:32:41;;;;;;;12.20;5.20;;;1.50;99.90;;;;;;5071815;28;20059;-69
2022/01/10 02:35:31;;;;;;;10.50;4.53;;;1.50;99.90;;;;;;5072668;28;20075;-68
2022/01/10 02:37:58;;;;;;;9.95;4.50;;;1.50;99.90;;;;;;5087008;28;20063;-68
2022/01/10 02:40:27;;;;;;;11.25;5.47;;;1.50;99.90;;;;;;5092280;28;20134;-68
2022/01/10 02:42:53;;;;;;;10.25;5.00;;;1.50;99.90;;;;;;5084608;28;20039;-69
2022/01/10 02:45:19;;;;;;;13.77;5.05;;;1.50;99.90;;;;;;5087402;28;20106;-68
2022/01/10 02:47:45;;;;;;;8.40;4.43;;;1.50;99.90;;;;;;5091148;28;20032;-68
2022/01/10 02:50:11;;;;;;;11.18;5.00;;;1.50;99.90;;;;;;5091772;28;20048;-68
2022/01/10 02:52:38;;;;;;;13.10;5.00;;;1.50;99.90;;;;;;5071523;28;20507;-68
2022/01/10 02:55:05;;;;;;;9.15;5.10;;;1.50;99.90;;;;;;5072310;28;20024;-69
2022/01/10 02:57:31;;;;;;;11.43;5.35;;;1.50;99.90;;;;;;5081418;28;20020;-68
2022/01/10 02:59:58;;;;;;;11.25;5.25;;;1.60;99.90;;;;;;5093075;28;20178;-68
2022/01/10 03:02:28;;;;;;;11.35;5.57;;;1.60;99.90;;;;;;5091100;28;20024;-68
2022/01/10 03:04:54;;;;;;;13.88;5.90;;;1.60;99.90;;;;;;5092872;28;20031;-69
2022/01/10 03:07:23;;;;;;;9.30;5.47;;;1.60;99.90;;;;;;5092105;28;20032;-69
2022/01/10 03:09:52;;;;;;;14.93;5.28;;;1.60;99.90;;;;;;5092630;28;20085;-69
2022/01/10 03:12:19;;;;;;;14.45;5.65;;;1.70;99.90;;;;;;5073449;28;20488;-68
2022/01/10 03:14:45;;;;;;;12.35;5.63;;;1.70;99.90;;;;;;5071519;28;20166;-69
2022/01/10 03:17:12;;;;;;;10.88;5.35;;;1.70;99.90;;;;;;5080870;28;20103;-69
2022/01/10 03:19:39;;;;;;;14.70;6.80;;;1.70;99.90;;;;;;5090986;28;20043;-68
2022/01/10 03:22:05;;;;;;;11.70;5.80;;;1.70;99.90;;;;;;5092566;28;20052;-68
2022/01/10 03:24:31;;;;;;;12.23;5.82;;;1.70;99.90;;;;;;5090737;28;20044;-68
2022/01/10 03:26:57;;;;;;;18.05;6.80;;;1.70;99.90;;;;;;5091872;28;20032;-68
2022/01/10 03:29:23;;;;;;;11.98;6.07;;;1.80;99.90;;;;;;5091800;28;20078;-68
2022/01/10 03:31:48;;;;;;;16.08;6.20;;;1.80;99.90;;;;;;5091504;28;20115;-68
2022/01/10 03:34:14;;;;;;;12.65;6.38;;;1.80;99.90;;;;;;5091672;28;20087;-68
2022/01/10 03:36:41;;;;;;;11.00;5.88;;;1.80;99.90;;;;;;5071023;28;20039;-68
2022/01/10 03:39:07;;;;;;;15.25;6.22;;;1.80;99.90;;;;;;5092012;28;20040;-68
2022/01/10 03:41:33;;;;;;;14.45;5.63;;;1.90;99.90;;;;;;5080430;28;20461;-68
2022/01/10 03:43:59;;;;;;;13.48;6.85;;;1.90;99.90;;;;;;5071950;28;20024;-68
2022/01/10 03:46:27;;;;;;;14.98;6.72;;;1.90;99.90;;;;;;5071380;28;20036;-68
2022/01/10 03:48:52;;;;;;;13.63;6.95;;;1.90;99.90;;;;;;5051363;28;20551;-68
2022/01/10 03:51:18;;;;;;;15.57;9.48;;;1.90;99.90;;;;;;5071762;28;20108;-68
2022/01/10 03:53:44;;;;;;;23.08;10.23;;;1.90;99.90;;;;;;5070763;28;20026;-68
2022/01/10 03:56:09;;;;;;;20.92;9.80;;;1.90;99.90;;;;;;5070227;28;20381;-68
2022/01/10 03:58:35;;;;;;;22.85;10.15;;;2.00;99.90;;;;;;5070059;28;20036;-68
2022/01/10 04:01:02;;;;;;;19.25;8.95;;;2.00;99.90;;;;;;5069449;28;20118;-68
2022/01/10 04:03:28;;;;;;;20.10;8.82;;;2.00;99.90;;;;;;5050752;28;20036;-68
2022/01/10 04:05:54;;;;;;;18.77;9.93;;;2.00;99.90;;;;;;5052459;28;20082;-68
2022/01/10 04:08:20;;;;;;;20.60;9.18;;;2.00;99.90;;;;;;5051301;28;20079;-68
2022/01/10 04:10:45;;;;;;;15.63;8.50;;;2.00;99.90;;;;;;5050051;28;20666;-68
2022/01/10 04:13:11;;;;;;;18.05;9.60;;;2.00;99.90;;;;;;5064195;28;20033;-68
2022/01/10 04:15:37;;;;;;;20.85;8.95;;;2.00;99.90;;;;;;5050537;28;20109;-68
2022/01/10 04:18:03;;;;;;;19.02;8.43;;;2.00;99.90;;;;;;5051209;28;20454;-68
2022/01/10 04:20:28;;;;;;;18.38;9.48;;;2.10;99.90;;;;;;5050258;28;20021;-68
2022/01/10 04:22:54;;;;;;;19.30;8.43;;;2.00;99.90;;;;;;5051734;28;20033;-68
2022/01/10 04:25:20;;;;;;;18.48;8.25;;;2.10;99.90;;;;;;5049558;28;20474;-68
2022/01/10 04:27:46;;;;;;;15.93;7.35;;;2.10;99.90;;;;;;5068751;28;20561;-68
2022/01/10 04:30:12;;;;;;;19.15;7.68;;;2.20;99.90;;;;;;5071662;28;20111;-68
2022/01/10 04:32:38;;;;;;;17.25;7.38;;;2.30;99.90;;;;;;5063114;28;20116;-68
2022/01/10 04:35:05;;;;;;;21.35;7.70;;;2.40;99.90;;;;;;5050952;28;20059;-68
2022/01/10 04:37:31;;;;;;;15.35;6.82;;;2.40;99.90;;;;;;5059155;28;20064;-68
2022/01/10 04:39:56;;;;;;;18.02;7.60;;;2.40;99.90;;;;;;5070997;28;20059;-68
2022/01/10 04:42:22;;;;;;;21.50;7.68;;;2.30;99.90;;;;;;5070013;28;20036;-68
2022/01/10 04:44:49;;;;;;;19.50;7.72;;;2.30;99.90;;;;;;5070383;28;20756;-68
2022/01/10 04:47:15;;;;;;;22.23;7.57;;;2.20;99.90;;;;;;5070699;28;20117;-68
2022/01/10 04:50:10;;;;;;;21.58;8.05;;;2.20;99.90;;;;;;5059185;28;20087;-69
2022/01/10 04:52:27;;;;;;;17.52;8.32;;;2.20;99.90;;;;;;5050122;28;20033;-68
2022/01/10 04:54:53;;;;;;;15.73;7.55;;;2.20;99.90;;;;;;5050711;28;20036;-68
2022/01/10 04:57:19;;;;;;;17.52;7.95;;;2.20;99.90;;;;;;5052615;28;20067;-68
2022/01/10 04:59:44;;;;;;;18.42;8.30;;;2.20;99.90;;;;;;5066733;28;20032;-69
2022/01/10 05:02:10;;;;;;;18.90;7.88;;;2.20;99.90;;;;;;5058641;28;20033;-68
2022/01/10 05:04:37;;;;;;;20.75;8.98;;;2.10;99.90;;;;;;5049829;28;20112;-68
2022/01/10 05:07:02;;;;;;;18.90;9.20;;;2.10;99.90;;;;;;5050846;28;20033;-68
2022/01/10 05:09:28;;;;;;;16.73;8.13;;;2.10;99.90;;;;;;5050113;28;20067;-67
2022/01/10 05:11:54;;;;;;;16.42;8.57;;;2.10;99.90;;;;;;5055047;28;20058;-68
2022/01/10 05:14:21;;;;;;;18.98;9.10;;;2.20;99.90;;;;;;5066012;28;20029;-68
2022/01/10 05:16:47;;;;;;;15.85;8.57;;;2.20;99.90;;;;;;5074367;28;20036;-68
2022/01/10 05:19:13;;;;;;;21.42;10.40;;;2.30;99.90;;;;;;5075344;28;20040;-68
2022/01/10 05:21:39;;;;;;;15.13;8.73;;;2.30;99.90;;;;;;5074619;28;20021;-68
2022/01/10 05:24:06;;;;;;;23.85;9.63;;;2.20;99.90;;;;;;5067636;28;20100;-68
2022/01/10 05:26:31;;;;;;;21.00;10.25;;;2.10;99.90;;;;;;5067793;28;20020;-67
2022/01/10 05:28:59;;;;;;;20.10;10.30;;;2.10;99.90;;;;;;5075044;28;20174;-68
2022/01/10 05:31:25;;;;;;;17.55;9.68;;;2.10;99.90;;;;;;5075343;28;20025;-68
2022/01/10 05:33:50;;;;;;;21.10;9.63;;;2.00;99.90;;;;;;5072490;28;20493;-68
2022/01/10 05:36:16;;;;;;;23.38;10.70;;;2.00;99.90;;;;;;5074739;28;20466;-68
2022/01/10 05:38:42;;;;;;;18.75;9.73;;;2.00;99.90;;;;;;5066655;28;20032;-68
2022/01/10 05:41:08;;;;;;;20.77;10.55;;;2.00;99.90;;;;;;5054440;28;20036;-68
2022/01/10 05:43:34;;;;;;;23.42;12.25;;;2.00;99.90;;;;;;5068437;28;20043;-68
2022/01/10 05:46:00;;;;;;;25.42;12.10;;;2.00;99.90;;;;;;5074446;28;20074;-68
2022/01/10 05:48:28;;;;;;;21.80;11.85;;;2.00;99.90;;;;;;5082393;28;20131;-68
2022/01/10 05:50:54;;;;;;;27.38;12.27;;;2.00;99.90;;;;;;5074561;28;20039;-68
2022/01/10 05:53:20;;;;;;;21.88;11.43;;;2.00;99.90;;;;;;5091866;28;20027;-68
2022/01/10 05:55:46;;;;;;;23.05;11.75;;;2.00;99.90;;;;;;5090049;28;20040;-68
2022/01/10 05:58:12;;;;;;;23.67;12.02;;;2.00;99.90;;;;;;5090378;28;20114;-69
2022/01/10 06:00:38;;;;;;;24.33;12.13;;;2.00;99.90;;;;;;5093267;28;20031;-68
2022/01/10 06:03:04;;;;;;;22.88;12.02;;;2.00;99.90;;;;;;5094918;28;20039;-68
2022/01/10 06:05:31;;;;;;;26.83;13.23;;;2.00;99.90;;;;;;5093497;28;20020;-68
2022/01/10 06:08:03;;;;;;;23.02;12.30;;;2.10;99.90;;;;;;5094155;28;20028;-69
2022/01/10 06:10:29;;;;;;;28.00;13.05;;;2.10;99.90;;;;;;5088150;28;20126;-68
2022/01/10 06:12:56;;;;;;;26.85;13.27;;;2.10;99.90;;;;;;5092728;28;20519;-68
2022/01/10 06:15:22;;;;;;;28.63;13.27;;;2.00;99.90;;;;;;5092388;28;20036;-69
2022/01/10 06:17:49;;;;;;;29.50;13.75;;;2.10;99.90;;;;;;5093088;28;20674;-68
2022/01/10 06:20:15;;;;;;;25.70;13.82;;;2.10;99.90;;;;;;5093549;28;20032;-68
2022/01/10 06:22:41;;;;;;;29.15;13.88;;;2.10;99.90;;;;;;5093393;28;20420;-68
2022/01/10 06:25:09;;;;;;;28.80;14.55;;;2.20;99.90;;;;;;5093185;28;20112;-70
2022/01/10 06:27:35;;;;;;;31.58;13.48;;;2.20;99.90;;;;;;5080943;28;20024;-69
2022/01/10 06:30:00;;;;;;;25.20;12.65;;;2.30;99.90;;;;;;5078202;28;20037;-69
2022/01/10 06:32:26;;;;;;;28.70;13.38;;;2.30;99.90;;;;;;5094476;28;20028;-69
2022/01/10 06:34:52;;;;;;;25.13;13.73;;;2.30;99.90;;;;;;5092920;28;20020;-69
2022/01/10 06:37:19;;;;;;;27.15;13.63;;;2.30;99.90;;;;;;5092128;28;20035;-69
2022/01/10 06:39:45;;;;;;;26.02;12.52;;;2.30;99.90;;;;;;5072486;28;20465;-68
2022/01/10 06:42:11;;;;;;;27.05;14.32;;;2.30;99.90;;;;;;5073509;28;20027;-68
2022/01/10 06:44:37;;;;;;;31.25;14.30;;;2.30;99.90;;;;;;5072170;28;20469;-69
2022/01/10 06:47:03;;;;;;;29.70;14.93;;;2.30;99.90;;;;;;5073725;28;20369;-73
2022/01/10 06:49:29;;;;;;;27.30;14.15;;;2.30;99.90;;;;;;5073089;28;20063;-70
2022/01/10 06:51:55;;;;;;;34.80;14.98;;;2.30;99.90;;;;;;5090767;28;20105;-74
2022/01/10 06:54:20;;;;;;;33.90;16.10;;;2.40;99.90;;;;;;5092801;28;20028;-74
2022/01/10 06:56:46;;;;;;;32.00;16.15;;;2.50;99.90;;;;;;5092140;28;20492;-70
2022/01/10 06:59:12;;;;;;;35.20;15.93;;;2.40;99.90;;;;;;5075337;28;20028;-71
2022/01/10 07:01:38;;;;;;;34.38;15.90;;;2.40;99.90;;;;;;5091836;28;20024;-69
2022/01/10 07:04:04;;;;;;;33.17;16.33;;;2.30;99.90;;;;;;5093728;28;20056;-70
2022/01/10 07:06:30;;;;;;;34.03;16.45;;;2.20;99.90;;;;;;5093325;28;20020;-71
2022/01/10 07:08:55;;;;;;;32.25;16.38;;;2.20;99.90;;;;;;5093164;28;20036;-72
2022/01/10 07:11:21;;;;;;;34.78;15.95;;;2.20;99.90;;;;;;5093434;28;20369;-69
2022/01/10 07:13:47;;;;;;;27.80;15.25;;;2.20;99.90;;;;;;5090603;28;20032;-69
2022/01/10 07:16:12;;;;;;;35.05;16.85;;;2.20;99.90;;;;;;5073398;28;20024;-70
2022/01/10 07:18:39;;;;;;;40.05;16.63;;;2.20;99.90;;;;;;5071699;28;20548;-70
2022/01/10 07:21:05;;;;;;;33.08;16.25;;;2.20;99.90;;;;;;5055449;28;20033;-71
2022/01/10 07:23:35;;;;;;;36.72;17.13;;;2.10;99.90;;;;;;5078730;28;20016;-70
2022/01/10 07:26:01;;;;;;;39.53;17.85;;;2.10;99.90;;;;;;5091335;28;20062;-70
2022/01/10 07:28:27;;;;;;;34.22;16.33;;;2.20;99.90;;;;;;5090094;28;20508;-71
2022/01/10 07:30:52;;;;;;;29.35;15.77;;;2.20;99.90;;;;;;5092326;28;20039;-71
2022/01/10 07:33:18;;;;;;;30.13;15.15;;;2.30;99.90;;;;;;5073931;28;20055;-70
2022/01/10 07:35:44;;;;;;;27.83;14.73;;;2.40;99.90;;;;;;5091038;28;20416;-70
2022/01/10 07:38:09;;;;;;;25.60;14.38;;;2.50;99.90;;;;;;5072259;28;20034;-70
2022/01/10 07:40:35;;;;;;;33.75;15.25;;;2.40;99.90;;;;;;5071719;28;20111;-70
2022/01/10 07:43:01;;;;;;;26.52;13.68;;;2.40;99.90;;;;;;5071857;28;20416;-71
2022/01/10 07:45:27;;;;;;;29.98;16.10;;;2.40;99.90;;;;;;5090482;28;20035;-71
2022/01/10 07:47:53;;;;;;;26.20;13.00;;;2.40;99.90;;;;;;5071084;28;20076;-71
2022/01/10 07:50:18;;;;;;;24.55;13.38;;;2.40;99.90;;;;;;5082590;28;20034;-72
2022/01/10 07:52:44;;;;;;;23.38;13.73;;;2.50;99.90;;;;;;5091553;28;20024;-71
2022/01/10 07:55:10;;;;;;;25.88;14.13;;;2.30;99.90;;;;;;5071884;28;20482;-71
2022/01/10 07:57:36;;;;;;;24.42;15.23;;;2.30;99.90;;;;;;5084112;28;20031;-70
2022/01/10 08:00:04;;;;;;;33.38;16.85;;;2.30;99.90;;;;;;5091361;28;20028;-71
2022/01/10 08:02:30;;;;;;;28.88;14.73;;;2.30;99.90;;;;;;5091880;28;20024;-71
2022/01/10 08:04:55;;;;;;;36.05;15.85;;;2.30;99.90;;;;;;5091343;28;20032;-71
2022/01/10 08:07:21;;;;;;;31.95;17.17;;;2.20;99.90;;;;;;5092239;28;20081;-71
2022/01/10 08:09:47;;;;;;;31.95;17.40;;;2.30;99.90;;;;;;5090965;28;20044;-70
2022/01/10 08:12:12;;;;;;;29.05;18.10;;;2.30;99.90;;;;;;5091997;28;20032;-71
2022/01/10 08:14:38;;;;;;;30.08;18.38;;;2.30;99.90;;;;;;5075838;28;20461;-71
2022/01/10 08:17:04;;;;;;;34.33;19.05;;;2.30;99.90;;;;;;5072370;28;20024;-71
2022/01/10 08:19:33;;;;;;;33.95;17.67;;;2.30;99.90;;;;;;5111559;28;20035;-71
2022/01/10 08:22:00;;;;;;;46.65;19.25;;;2.40;99.90;;;;;;5111633;28;20027;-71
2022/01/10 08:24:26;;;;;;;35.53;20.17;;;2.40;99.90;;;;;;5098162;28;20093;-71
2022/01/10 08:26:54;;;;;;;36.33;20.45;;;2.40;99.90;;;;;;5091049;28;20106;-71
2022/01/10 08:29:20;;;;;;;38.63;19.77;;;2.40;99.90;;;;;;5091635;28;20032;-72
2022/01/10 08:31:46;;;;;;;35.25;19.95;;;2.40;99.90;;;;;;5090675;28;20032;-70
2022/01/10 08:34:12;;;;;;;34.75;18.55;;;2.50;99.90;;;;;;5091877;28;20028;-72
2022/01/10 08:36:38;;;;;;;35.17;20.17;;;2.60;99.90;;;;;;5091131;28;20453;-71
2022/01/10 08:39:05;;;;;;;38.25;20.85;;;2.60;99.90;;;;;;5091647;28;20028;-71
2022/01/10 08:41:32;;;;;;;37.05;19.90;;;2.70;99.90;;;;;;5089072;28;20201;-71
2022/01/10 08:43:58;;;;;;;38.35;19.42;;;2.70;99.90;;;;;;5090578;28;20111;-71
2022/01/10 08:46:24;;;;;;;36.85;18.92;;;2.60;99.90;;;;;;5086224;28;20046;-72
2022/01/10 08:48:51;;;;;;;34.95;19.45;;;2.60;99.90;;;;;;5085429;28;20488;-71
2022/01/10 08:51:17;;;;;;;34.38;19.70;;;2.60;99.90;;;;;;5082101;28;20150;-71
2022/01/10 08:53:43;;;;;;;36.08;20.27;;;2.70;99.90;;;;;;5101859;28;20055;-71
2022/01/10 08:56:09;;;;;;;34.35;18.05;;;2.60;99.90;;;;;;5103338;28;20067;-71
2022/01/10 08:58:34;;;;;;;30.08;17.48;;;2.70;99.90;;;;;;5079414;28;20060;-70
2022/01/10 09:01:03;;;;;;;31.08;18.20;;;2.80;99.90;;;;;;5070002;28;20512;-71
2022/01/10 09:03:29;;;;;;;33.15;18.90;;;2.90;99.90;;;;;;5071427;28;20060;-71
2022/01/10 09:05:55;;;;;;;28.45;17.40;;;2.80;99.90;;;;;;5074478;28;20683;-71
2022/01/10 09:08:23;;;;;;;29.73;17.73;;;2.80;99.90;;;;;;5091209;28;20044;-74
2022/01/10 09:10:48;;;;;;;26.85;16.60;;;2.80;99.90;;;;;;5073870;28;20060;-71
2022/01/10 09:13:14;;;;;;;25.30;16.65;;;2.80;99.90;;;;;;5071520;28;20492;-71
2022/01/10 09:15:40;;;;;;;29.13;14.77;;;3.00;99.90;;;;;;5070395;28;20358;-70
2022/01/10 09:18:06;;;;;;;32.53;17.67;;;3.00;99.90;;;;;;5070896;28;20048;-71
2022/01/10 09:20:31;;;;;;;32.50;16.85;;;3.10;99.90;;;;;;5071154;28;20031;-71
2022/01/10 09:22:57;;;;;;;30.63;17.13;;;3.10;99.90;;;;;;5076871;28;20036;-71
2022/01/10 09:25:23;;;;;;;34.92;17.17;;;3.10;99.90;;;;;;5091000;28;20400;-71
2022/01/10 09:27:49;;;;;;;30.98;17.75;;;3.20;99.90;;;;;;5071953;28;20028;-71
2022/01/10 09:30:14;;;;;;;29.33;18.00;;;3.30;99.90;;;;;;5070113;28;20040;-75
2022/01/10 09:32:41;;;;;;;30.85;18.67;;;3.30;99.90;;;;;;5070328;28;20078;-70
2022/01/10 09:35:08;;;;;;;31.50;17.90;;;3.30;99.90;;;;;;5070954;28;20028;-71
2022/01/10 09:37:33;;;;;;;31.77;17.95;;;3.20;99.90;;;;;;5071199;28;20033;-71
2022/01/10 09:39:59;;;;;;;34.45;17.80;;;3.20;99.90;;;;;;5087888;28;20039;-71
2022/01/10 09:42:25;;;;;;;38.15;19.88;;;3.10;99.90;;;;;;5090737;28;20036;-71
2022/01/10 09:44:51;;;;;;;32.33;17.60;;;3.10;99.90;;;;;;5090368;28;20032;-71
2022/01/10 09:47:17;;;;;;;29.67;16.88;;;3.10;99.90;;;;;;5088915;28;20032;-71
2022/01/10 09:49:43;;;;;;;35.85;16.90;;;3.20;99.90;;;;;;5090083;28;20105;-71
2022/01/10 09:52:09;;;;;;;30.58;17.75;;;3.20;99.90;;;;;;5083596;28;20082;-71
2022/01/10 09:54:35;;;;;;;28.95;16.65;;;3.30;99.90;;;;;;5053182;28;20036;-71
2022/01/10 09:57:00;;;;;;;34.58;17.17;;;3.30;99.90;;;;;;5080247;28;20051;-71
2022/01/10 09:59:26;;;;;;;29.63;17.02;;;3.50;99.90;;;;;;5094721;28;20069;-71
2022/01/10 10:01:53;;;;;;;26.92;15.52;;;3.50;99.90;;;;;;5093581;28;20024;-71
2022/01/10 10:04:19;;;;;;;28.02;15.50;;;3.60;99.90;;;;;;5089259;28;20466;-71
2022/01/10 10:06:46;;;;;;;29.45;15.95;;;3.70;99.90;;;;;;5090590;28;20029;-71
2022/01/10 10:09:12;;;;;;;32.95;17.65;;;3.70;99.90;;;;;;5074132;28;20041;-71
2022/01/10 10:11:50;;;;;;;30.92;16.10;;;3.90;99.90;;;;;;5074071;28;20039;-71
2022/01/10 10:14:22;;;;;;;31.30;16.05;;;3.90;99.90;;;;;;5082684;28;20476;-72
2022/01/10 10:16:50;;;;;;;25.55;15.05;;;4.00;99.90;;;;;;5093602;28;20110;-71
2022/01/10 10:19:18;;;;;;;31.33;15.25;;;4.20;99.90;;;;;;5075479;28;20118;-72
2022/01/10 10:21:44;;;;;;;39.47;14.27;;;4.40;99.90;;;;;;5077108;28;20520;-71
2022/01/10 10:24:10;;;;;;;24.00;13.38;;;4.50;99.90;;;;;;5094061;28;20035;-71
2022/01/10 10:26:36;;;;;;;20.85;12.82;;;4.60;99.90;;;;;;5088493;28;20024;-69
2022/01/10 10:29:03;;;;;;;21.73;13.65;;;4.60;99.90;;;;;;5073181;28;20040;-72
2022/01/10 10:31:30;;;;;;;25.83;13.88;;;4.60;99.90;;;;;;5073867;28;20029;-71
2022/01/10 10:33:57;;;;;;;26.13;14.45;;;4.60;99.90;;;;;;5073013;28;20079;-71
2022/01/10 10:36:25;;;;;;;26.90;13.77;;;4.70;99.90;;;;;;5090209;28;20028;-71
2022/01/10 10:38:51;;;;;;;27.48;14.25;;;4.60;99.90;;;;;;5093089;28;20036;-72
2022/01/10 10:41:16;;;;;;;23.58;13.88;;;4.60;99.90;;;;;;5093864;28;20024;-71
2022/01/10 10:43:43;;;;;;;32.40;16.08;;;4.60;99.90;;;;;;5093085;28;20036;-71
2022/01/10 10:46:14;;;;;;;26.02;15.35;;;4.60;99.90;;;;;;5091556;28;20028;-72
2022/01/10 10:48:42;;;;;;;31.45;16.13;;;4.50;99.90;;;;;;5090526;28;20143;-71
2022/01/10 10:51:09;;;;;;;26.35;16.17;;;4.50;99.90;;;;;;5093744;28;20024;-73
2022/01/10 10:53:35;;;;;;;34.10;15.90;;;4.60;99.90;;;;;;5086904;28;20029;-73
2022/01/10 10:56:03;;;;;;;33.88;16.63;;;4.50;99.90;;;;;;5073406;28;20522;-72
2022/01/10 10:58:31;;;;;;;28.55;15.57;;;4.40;99.90;;;;;;5076385;28;20430;-73
2022/01/10 11:00:58;;;;;;;23.90;13.68;;;4.30;99.90;;;;;;5091202;28;20031;-73
2022/01/10 11:03:25;;;;;;;23.38;13.82;;;4.30;99.90;;;;;;5089148;28;20025;-73
2022/01/10 11:05:54;;;;;;;26.98;15.05;;;4.20;99.90;;;;;;5078089;28;20074;-72
2022/01/10 11:08:22;;;;;;;24.17;13.13;;;4.10;99.90;;;;;;5073132;28;20090;-73
2022/01/10 11:10:48;;;;;;;27.70;13.95;;;4.20;99.90;;;;;;5072401;28;20071;-72
2022/01/10 11:13:14;;;;;;;24.35;13.40;;;4.30;99.90;;;;;;5073258;28;20032;-72
2022/01/10 11:15:42;;;;;;;25.63;13.10;;;4.30;99.90;;;;;;5072805;28;20031;-71
2022/01/10 11:18:09;;;;;;;21.35;11.82;;;4.30;99.90;;;;;;5072359;28;20068;-72
2022/01/10 11:20:51;;;;;;;22.60;10.70;;;4.40;99.90;;;;;;5076477;28;20039;-73
2022/01/10 11:23:17;;;;;;;22.60;10.65;;;4.40;99.90;;;;;;5080052;28;20023;-71
2022/01/10 11:25:44;;;;;;;16.45;9.45;;;4.50;99.90;;;;;;5091675;28;20099;-71
2022/01/10 11:28:23;;;;;;;17.98;9.40;;;4.60;99.90;;;;;;5088779;28;20024;-71
2022/01/10 11:30:51;;;;;;;22.88;10.57;;;4.70;99.90;;;;;;5089693;28;20105;-72
2022/01/10 11:33:22;;;;;;;16.70;10.43;;;4.80;99.90;;;;;;5093283;28;20070;-72
2022/01/10 11:35:59;;;;;;;19.92;10.85;;;4.80;99.90;;;;;;5082747;28;20032;-72
2022/01/10 11:38:29;;;;;;;22.60;10.93;;;4.90;99.90;;;;;;5092875;28;20031;-73
2022/01/10 11:41:13;;;;;;;20.77;11.33;;;5.00;99.90;;;;;;5075667;28;20044;-74
2022/01/10 11:44:04;;;;;;;21.58;11.15;;;5.00;99.90;;;;;;5071599;28;20294;-73
2022/01/10 11:46:41;;;;;;;26.33;10.52;;;4.90;99.90;;;;;;5075694;28;20033;-73
2022/01/10 11:49:11;;;;;;;21.25;11.00;;;4.90;99.90;;;;;;5090281;28;20262;-73
2022/01/10 11:51:45;;;;;;;;;;;5.00;99.90;;;;;;5094611;28;20782;-75
2022/01/10 11:54:26;;;;;;;21.92;10.75;;;5.00;99.90;;;;;;5091611;28;19908;-74
2022/01/10 11:56:51;;;;;;;;;;;5.00;99.90;;;;;;5090727;28;20076;-81
2022/01/10 11:59:39;;;;;;;21.45;10.52;;;5.20;99.90;;;;;;5090842;28;19912;-71
2022/01/10 12:02:17;;;;;;;17.08;10.05;;;5.30;99.90;;;;;;5091107;28;20020;-74
2022/01/10 12:04:51;;;;;;;18.40;9.43;;;5.50;99.90;;;;;;5086148;28;20032;-74
2022/01/10 12:07:21;;;;;;;27.17;11.60;;;5.60;99.90;;;;;;5071778;28;20445;-74
2022/01/10 12:09:48;;;;;;;24.40;12.02;;;5.70;99.90;;;;;;5081097;28;20078;-72
2022/01/10 12:12:16;;;;;;;24.52;10.65;;;5.70;99.90;;;;;;5090121;28;20036;-74
2022/01/10 12:14:43;;;;;;;19.95;10.90;;;5.60;99.90;;;;;;5073330;28;20031;-74
2022/01/10 12:17:09;;;;;;;19.02;9.43;;;5.60;99.90;;;;;;5089727;28;20077;-72
2022/01/10 12:19:37;;;;;;;18.58;9.20;;;5.60;99.90;;;;;;5090570;28;20074;-73
2022/01/10 12:22:06;;;;;;;54.03;19.85;;;5.70;99.90;;;;;;5089791;28;20028;-73
2022/01/10 12:24:32;;;;;;;22.60;11.15;;;5.70;99.90;;;;;;5089123;28;20404;-73
2022/01/10 12:26:59;;;;;;;18.92;10.98;;;5.80;99.90;;;;;;5081956;28;20059;-73
2022/01/10 12:29:29;;;;;;;21.98;11.00;;;5.70;99.90;;;;;;5091182;28;20040;-73
2022/01/10 12:31:55;;;;;;;21.05;10.43;;;5.70;99.90;;;;;;5090454;28;20028;-73
2022/01/10 12:34:21;;;;;;;19.10;10.30;;;5.60;99.90;;;;;;5091499;28;20149;-73
2022/01/10 12:36:46;;;;;;;25.45;10.57;;;5.50;99.90;;;;;;5091507;28;20031;-74
2022/01/10 12:39:22;;;;;;;19.67;10.52;;;5.50;99.90;;;;;;5072872;28;20501;-74
2022/01/10 12:41:49;;;;;;;16.70;10.07;;;5.40;99.90;;;;;;5090807;28;20044;-70
2022/01/10 12:44:15;;;;;;;22.85;10.82;;;5.30;99.90;;;;;;5088274;28;20035;-73
2022/01/10 12:46:41;;;;;;;28.35;12.55;;;5.20;99.90;;;;;;5091256;28;20020;-73
2022/01/10 12:49:10;;;;;;;18.48;10.65;;;5.10;99.90;;;;;;5072893;28;20075;-72
2022/01/10 12:51:43;;;;;;;20.53;10.23;;;5.00;99.90;;;;;;5087469;28;20020;-73
2022/01/10 12:54:24;;;;;;;23.45;10.70;;;5.00;99.90;;;;;;5086851;28;20024;-74
2022/01/10 12:56:50;;;;;;;30.73;12.18;;;5.00;99.90;;;;;;5058760;28;20032;-72